Time;durP1;ratioP1;P1;durP2;ratioP2;P2;SDS_P1;SDS_P2;PMS_P1;PMS_P2;Temp;Humidity;BMP_temperature;BMP_pressure;BME280_temperature;BME280_humidity;BME280_pressure;Samples;Min_cycle;Max_cycle;Signal;HPM_P1;HPM_P2
2022/12/31 00:01:38;;;;;;;;;;;;;;;;;;8230935;27;28859;-76
2022/12/31 00:05:38;;;;;;;;;;;;;;;;;;8239919;27;28522;-76
2022/12/31 00:09:38;;;;;;;;;;;;;;;;;;8255541;27;28751;-75
2022/12/31 00:13:38;;;;;;;;;;;;;;;;;;8260771;27;28151;-76
2022/12/31 00:17:39;;;;;;;;;;;;;;;;;;8272198;27;28580;-75
2022/12/31 00:21:39;;;;;;;;;;;;;;;;;;8258005;27;29156;-74
2022/12/31 00:25:39;;;;;;;;;;;;;;;;;;8308006;27;27876;-75
2022/12/31 00:29:39;;;;;;;;;;;;;;;;;;8283625;27;28743;-76
2022/12/31 00:33:39;;;;;;;;;;;;;;;;;;8271924;27;28233;-75
2022/12/31 00:37:39;;;;;;;;;;;;;;;;;;8246618;27;28289;-75
2022/12/31 00:41:39;;;;;;;;;;;;;;;;;;8265877;27;28942;-75
2022/12/31 00:45:39;;;;;;;;;;;;;;;;;;8280498;27;28333;-76
2022/12/31 00:49:39;;;;;;;;;;;;;;;;;;8450917;27;27689;-76
2022/12/31 00:53:39;;;;;;;;;;;;;;;;;;8451913;27;27684;-74
2022/12/31 00:57:40;;;;;;;;;;;;;;;;;;8448909;27;27597;-76
2022/12/31 01:01:40;;;;;;;;;;;;;;;;;;8431974;27;30046;-75
2022/12/31 01:05:40;;;;;;;;;;;;;;;;;;8434060;27;28362;-75
2022/12/31 01:09:40;;;;;;;;;;;;;;;;;;8454709;27;28229;-75
2022/12/31 01:13:40;;;;;;;;;;;;;;;;;;8433883;27;28418;-75
2022/12/31 01:17:40;;;;;;;;;;;;;;;;;;8434218;27;28673;-76
2022/12/31 01:21:40;;;;;;;;;;;;;;;;;;8452167;27;27523;-75
2022/12/31 01:25:43;;;;;;;;;;;;;;;;;;8446042;27;27551;-75
2022/12/31 01:29:43;;;;;;;;;;;;;;;;;;8450943;27;27947;-76
2022/12/31 01:33:44;;;;;;;;;;;;;;;;;;8450973;27;27610;-75
2022/12/31 01:37:44;;;;;;;;;;;;;;;;;;8454991;27;27366;-75
2022/12/31 01:41:44;;;;;;;;;;;;;;;;;;8454087;27;27687;-74
2022/12/31 01:45:44;;;;;;;;;;;;;;;;;;8447225;27;27913;-75
2022/12/31 01:49:44;;;;;;;;;;;;;;;;;;8448678;27;28003;-76
2022/12/31 01:53:44;;;;;;;;;;;;;;;;;;8447438;27;28122;-74
2022/12/31 01:57:44;;;;;;;;;;;;;;;;;;8451205;27;27849;-75
2022/12/31 02:01:46;;;;;;;;;;;;;;;;;;8454036;27;27405;-76
2022/12/31 02:05:47;;;;;;;;;;;;;;;;;;8430141;27;28283;-76
2022/12/31 02:09:47;;;;;;;;;;;;;;;;;;8451195;27;27767;-76
2022/12/31 02:13:47;;;;;;;;;;;;;;;;;;8447114;27;27914;-75
2022/12/31 02:17:47;;;;;;;;;;;;;;;;;;8453415;27;27490;-76
2022/12/31 02:21:47;;;;;;;;;;;;;;;;;;8452189;27;27940;-75
2022/12/31 02:25:47;;;;;;;;;;;;;;;;;;8448389;27;27724;-74
2022/12/31 02:29:48;;;;;;;;;;;;;;;;;;8453141;27;27667;-75
2022/12/31 02:33:48;;;;;;;;;;;;;;;;;;8450083;27;28389;-75
2022/12/31 02:37:48;;;;;;;;;;;;;;;;;;8449831;27;27183;-75
2022/12/31 02:41:51;;;;;;;;;;;;;;;;;;8445707;27;27311;-75
2022/12/31 02:45:51;;;;;;;;;;;;;;;;;;8446920;27;27761;-75
2022/12/31 02:49:51;;;;;;;;;;;;;;;;;;8453606;27;28571;-75
2022/12/31 02:53:51;;;;;;;;;;;;;;;;;;8446473;27;27283;-76
2022/12/31 02:57:51;;;;;;;;;;;;;;;;;;8428454;27;28164;-76
2022/12/31 03:06:10;;;;;;;;;;;;;;;;;;8450253;27;27931;-76
2022/12/31 03:10:10;;;;;;;;;;;;;;;;;;8452080;27;27295;-75
2022/12/31 03:14:10;;;;;;;;;;;;;;;;;;8428840;27;28757;-75
2022/12/31 03:18:11;;;;;;;;;;;;;;;;;;8453216;27;27434;-76
2022/12/31 03:22:26;;;;;;;;;;;;;;;;;;8451491;27;27362;-74
2022/12/31 03:26:26;;;;;;;;;;;;;;;;;;8452409;27;28480;-75
2022/12/31 03:30:26;;;;;;;;;;;;;;;;;;8434887;27;29956;-76
2022/12/31 03:34:27;;;;;;;;;;;;;;;;;;8433697;27;29959;-76
2022/12/31 03:38:27;;;;;;;;;;;;;;;;;;8453072;27;27560;-75
2022/12/31 03:42:27;;;;;;;;;;;;;;;;;;8452140;27;27523;-75
2022/12/31 03:46:27;;;;;;;;;;;;;;;;;;8453613;27;27806;-75
2022/12/31 03:50:27;;;;;;;;;;;;;;;;;;8435452;27;28674;-75
2022/12/31 03:54:27;;;;;;;;;;;;;;;;;;8429195;27;28628;-76
2022/12/31 03:58:27;;;;;;;;;;;;;;;;;;8451337;27;27539;-76
2022/12/31 04:02:27;;;;;;;;;;;;;;;;;;8449416;27;27516;-75
2022/12/31 04:06:27;;;;;;;;;;;;;;;;;;8453639;27;27144;-75
2022/12/31 04:10:29;;;;;;;;;;;;;;;;;;8449465;27;48985;-75
2022/12/31 04:14:30;;;;;;;;;;;;;;;;;;8426319;27;28483;-76
2022/12/31 04:18:30;;;;;;;;;;;;;;;;;;8432639;27;28564;-76
2022/12/31 04:22:30;;;;;;;;;;;;;;;;;;8449339;27;27433;-75
2022/12/31 04:26:30;;;;;;;;;;;;;;;;;;8431211;27;28505;-76
2022/12/31 04:30:30;;;;;;;;;;;;;;;;;;8451443;27;28330;-75
2022/12/31 04:34:30;;;;;;;;;;;;;;;;;;8447508;27;27582;-75
2022/12/31 04:38:30;;;;;;;;;;;;;;;;;;8452670;27;27706;-75
2022/12/31 04:42:30;;;;;;;;;;;;;;;;;;8428502;27;27678;-76
2022/12/31 04:46:30;;;;;;;;;;;;;;;;;;8451565;27;27424;-74
2022/12/31 04:50:30;;;;;;;;;;;;;;;;;;8453390;27;27172;-74
2022/12/31 04:54:30;;;;;;;;;;;;;;;;;;8448486;27;28160;-76
2022/12/31 04:58:31;;;;;;;;;;;;;;;;;;8452429;27;27416;-76
2022/12/31 05:02:31;;;;;;;;;;;;;;;;;;8445581;27;27466;-76
2022/12/31 05:06:31;;;;;;;;;;;;;;;;;;8445893;27;28040;-75
2022/12/31 05:10:31;;;;;;;;;;;;;;;;;;8450107;27;27427;-76
2022/12/31 05:14:31;;;;;;;;;;;;;;;;;;8446144;27;27456;-75
2022/12/31 05:18:31;;;;;;;;;;;;;;;;;;8429915;27;29200;-76
2022/12/31 05:22:31;;;;;;;;;;;;;;;;;;8446780;27;27922;-75
2022/12/31 05:26:31;;;;;;;;;;;;;;;;;;8430177;27;28638;-76
2022/12/31 05:30:31;;;;;;;;;;;;;;;;;;8450097;27;27205;-75
2022/12/31 05:34:31;;;;;;;;;;;;;;;;;;8445738;27;27471;-74
2022/12/31 05:38:31;;;;;;;;;;;;;;;;;;8451222;27;27942;-75
2022/12/31 05:42:32;;;;;;;;;;;;;;;;;;8428624;27;29023;-75
2022/12/31 05:46:32;;;;;;;;;;;;;;;;;;8449327;27;27443;-77
2022/12/31 05:50:32;;;;;;;;;;;;;;;;;;8449596;27;27595;-74
2022/12/31 05:54:32;;;;;;;;;;;;;;;;;;8428775;27;28922;-74
2022/12/31 05:58:32;;;;;;;;;;;;;;;;;;8451144;27;27571;-75
2022/12/31 06:02:32;;;;;;;;;;;;;;;;;;8426506;27;28370;-74
2022/12/31 06:06:32;;;;;;;;;;;;;;;;;;8449739;27;27516;-74
2022/12/31 06:10:32;;;;;;;;;;;;;;;;;;8446066;27;27407;-74
2022/12/31 06:14:32;;;;;;;;;;;;;;;;;;8426787;27;28848;-76
2022/12/31 06:18:32;;;;;;;;;;;;;;;;;;8455511;27;27460;-76
2022/12/31 06:22:32;;;;;;;;;;;;;;;;;;8448146;27;28055;-76
2022/12/31 06:26:32;;;;;;;;;;;;;;;;;;8435412;27;28635;-74
2022/12/31 06:30:33;;;;;;;;;;;;;;;;;;8436630;27;28490;-76
2022/12/31 06:34:33;;;;;;;;;;;;;;;;;;8433122;27;28504;-76
2022/12/31 06:38:33;;;;;;;;;;;;;;;;;;8454337;27;27526;-76
2022/12/31 06:42:33;;;;;;;;;;;;;;;;;;8452086;27;27454;-76
2022/12/31 06:46:33;;;;;;;;;;;;;;;;;;8454060;27;27403;-77
2022/12/31 06:50:33;;;;;;;;;;;;;;;;;;8450770;27;27612;-77
2022/12/31 06:54:33;;;;;;;;;;;;;;;;;;8428500;27;28876;-76
2022/12/31 06:58:33;;;;;;;;;;;;;;;;;;8426367;27;28728;-76
2022/12/31 07:02:33;;;;;;;;;;;;;;;;;;8451249;27;27745;-76
2022/12/31 07:06:33;;;;;;;;;;;;;;;;;;8434204;27;28879;-76
2022/12/31 07:10:33;;;;;;;;;;;;;;;;;;8453184;27;27663;-76
2022/12/31 07:14:33;;;;;;;;;;;;;;;;;;8436126;27;28333;-76
2022/12/31 07:18:34;;;;;;;;;;;;;;;;;;8450432;27;27842;-76
2022/12/31 07:22:34;;;;;;;;;;;;;;;;;;8445510;27;27556;-76
2022/12/31 07:26:34;;;;;;;;;;;;;;;;;;8454800;27;28061;-75
2022/12/31 07:30:34;;;;;;;;;;;;;;;;;;8449392;27;27409;-76
2022/12/31 07:34:34;;;;;;;;;;;;;;;;;;8452003;27;27691;-76
2022/12/31 07:38:34;;;;;;;;;;;;;;;;;;8431479;27;27748;-76
2022/12/31 07:42:34;;;;;;;;;;;;;;;;;;8448036;27;27472;-76
2022/12/31 07:46:34;;;;;;;;;;;;;;;;;;8454902;27;27825;-76
2022/12/31 07:50:34;;;;;;;;;;;;;;;;;;8448228;27;27329;-76
2022/12/31 07:54:34;;;;;;;;;;;;;;;;;;8452912;27;27348;-76
2022/12/31 07:58:34;;;;;;;;;;;;;;;;;;8450527;27;27315;-76
2022/12/31 08:02:34;;;;;;;;;;;;;;;;;;8426410;27;28589;-76
2022/12/31 08:06:35;;;;;;;;;;;;;;;;;;8452904;27;27455;-77
2022/12/31 08:10:35;;;;;;;;;;;;;;;;;;8440709;27;27582;-76
2022/12/31 08:14:35;;;;;;;;;;;;;;;;;;8451980;27;28262;-76
2022/12/31 08:18:35;;;;;;;;;;;;;;;;;;8431953;27;28820;-76
2022/12/31 08:22:35;;;;;;;;;;;;;;;;;;8448917;27;28329;-75
2022/12/31 08:26:35;;;;;;;;;;;;;;;;;;8452035;27;27106;-76
2022/12/31 08:30:35;;;;;;;;;;;;;;;;;;8429391;27;29721;-75
2022/12/31 08:34:35;;;;;;;;;;;;;;;;;;8449308;27;27489;-76
2022/12/31 08:38:36;;;;;;;;;;;;;;;;;;8450059;27;27755;-76
2022/12/31 08:42:36;;;;;;;;;;;;;;;;;;8448731;27;28423;-75
2022/12/31 08:46:36;;;;;;;;;;;;;;;;;;8449495;27;28524;-76
2022/12/31 08:50:36;;;;;;;;;;;;;;;;;;8438339;27;28726;-76
2022/12/31 08:54:36;;;;;;;;;;;;;;;;;;8452077;27;28387;-76
2022/12/31 08:58:36;;;;;;;;;;;;;;;;;;8430567;27;28669;-76
2022/12/31 09:02:36;;;;;;;;;;;;;;;;;;8453795;27;28248;-76
2022/12/31 09:06:36;;;;;;;;;;;;;;;;;;8436515;27;28394;-76
2022/12/31 09:10:36;;;;;;;;;;;;;;;;;;8426038;27;29165;-76
2022/12/31 09:14:36;;;;;;;;;;;;;;;;;;8453843;27;27684;-76
2022/12/31 09:18:36;;;;;;;;;;;;;;;;;;8455042;27;27552;-76
2022/12/31 09:22:36;;;;;;;;;;;;;;;;;;8455503;27;27323;-76
2022/12/31 09:26:36;;;;;;;;;;;;;;;;;;8455326;27;28446;-77
2022/12/31 09:30:37;;;;;;;;;;;;;;;;;;8431336;27;28459;-76
2022/12/31 09:34:37;;;;;;;;;;;;;;;;;;8455530;27;27597;-77
2022/12/31 09:38:37;;;;;;;;;;;;;;;;;;8454441;27;27469;-76
2022/12/31 09:42:37;;;;;;;;;;;;;;;;;;8434882;27;28894;-76
2022/12/31 09:46:37;;;;;;;;;;;;;;;;;;8424719;27;28563;-75
2022/12/31 09:50:37;;;;;;;;;;;;;;;;;;8451834;27;27822;-76
2022/12/31 09:54:37;;;;;;;;;;;;;;;;;;8440749;27;28523;-77
2022/12/31 09:58:37;;;;;;;;;;;;;;;;;;8439893;27;28451;-75
2022/12/31 10:02:37;;;;;;;;;;;;;;;;;;8456066;27;27253;-76
2022/12/31 10:06:38;;;;;;;;;;;;;;;;;;8457347;27;27292;-76
2022/12/31 10:10:38;;;;;;;;;;;;;;;;;;8452352;27;27654;-76
2022/12/31 10:14:38;;;;;;;;;;;;;;;;;;8452082;27;28083;-75
2022/12/31 10:18:38;;;;;;;;;;;;;;;;;;8444924;27;27875;-76
2022/12/31 10:22:38;;;;;;;;;;;;;;;;;;8448275;27;27703;-76
2022/12/31 10:26:38;;;;;;;;;;;;;;;;;;8458837;27;28900;-76
2022/12/31 10:30:38;;;;;;;;;;;;;;;;;;8454194;27;27896;-76
2022/12/31 10:34:38;;;;;;;;;;;;;;;;;;8450145;27;27611;-75
2022/12/31 10:38:38;;;;;;;;;;;;;;;;;;8455673;27;27702;-74
2022/12/31 10:42:38;;;;;;;;;;;;;;;;;;8450793;27;28263;-75
2022/12/31 10:46:38;;;;;;;;;;;;;;;;;;8431078;27;29132;-76
2022/12/31 10:50:38;;;;;;;;;;;;;;;;;;8450197;27;27618;-76
2022/12/31 10:54:38;;;;;;;;;;;;;;;;;;8448043;27;28126;-76
2022/12/31 10:58:38;;;;;;;;;;;;;;;;;;8450599;27;27442;-76
2022/12/31 11:02:38;;;;;;;;;;;;;;;;;;8433007;27;28625;-75
2022/12/31 11:06:39;;;;;;;;;;;;;;;;;;8455104;27;27432;-75
2022/12/31 11:10:39;;;;;;;;;;;;;;;;;;8455965;27;27366;-75
2022/12/31 11:14:39;;;;;;;;;;;;;;;;;;8452835;27;27563;-76
2022/12/31 11:18:39;;;;;;;;;;;;;;;;;;8432295;27;28837;-75
2022/12/31 11:22:39;;;;;;;;;;;;;;;;;;8454838;27;27633;-76
2022/12/31 11:26:39;;;;;;;;;;;;;;;;;;8451445;27;27760;-75
2022/12/31 11:30:39;;;;;;;;;;;;;;;;;;8459427;27;28116;-75
2022/12/31 11:34:39;;;;;;;;;;;;;;;;;;8455436;27;27423;-76
2022/12/31 11:38:39;;;;;;;;;;;;;;;;;;8446112;27;27307;-76
2022/12/31 11:42:40;;;;;;;;;;;;;;;;;;8432328;27;28816;-75
2022/12/31 11:46:40;;;;;;;;;;;;;;;;;;8454267;27;27580;-75
2022/12/31 11:50:40;;;;;;;;;;;;;;;;;;8451135;27;27347;-74
2022/12/31 11:54:40;;;;;;;;;;;;;;;;;;8452123;27;27626;-76
2022/12/31 11:58:40;;;;;;;;;;;;;;;;;;8457739;27;28432;-76
2022/12/31 12:02:40;;;;;;;;;;;;;;;;;;8449251;27;28223;-76
2022/12/31 12:06:42;;;;;;;;;;;;;;;;;;8432655;27;29208;-76
2022/12/31 12:10:42;;;;;;;;;;;;;;;;;;8426500;27;29032;-76
2022/12/31 12:14:42;;;;;;;;;;;;;;;;;;8432789;27;28476;-76
2022/12/31 12:18:42;;;;;;;;;;;;;;;;;;8451952;27;28611;-77
2022/12/31 12:22:42;;;;;;;;;;;;;;;;;;8451961;27;27598;-77
2022/12/31 12:26:44;;;;;;;;;;;;;;;;;;8456937;27;27766;-76
2022/12/31 12:30:44;;;;;;;;;;;;;;;;;;8453062;27;27318;-77
2022/12/31 12:34:44;;;;;;;;;;;;;;;;;;8439106;27;28506;-76
2022/12/31 12:38:44;;;;;;;;;;;;;;;;;;8454962;27;27764;-76
2022/12/31 12:42:44;;;;;;;;;;;;;;;;;;8455897;27;27150;-75
2022/12/31 12:46:44;;;;;;;;;;;;;;;;;;8459090;27;27126;-77
2022/12/31 12:50:44;;;;;;;;;;;;;;;;;;8439287;27;28137;-76
2022/12/31 12:54:44;;;;;;;;;;;;;;;;;;8456809;27;27213;-76
2022/12/31 12:58:44;;;;;;;;;;;;;;;;;;8433764;27;28531;-76
2022/12/31 13:02:47;;;;;;;;;;;;;;;;;;8453557;27;27240;-76
2022/12/31 13:06:47;;;;;;;;;;;;;;;;;;8430547;27;28827;-75
2022/12/31 13:10:47;;;;;;;;;;;;;;;;;;8452325;27;27562;-75
2022/12/31 13:14:47;;;;;;;;;;;;;;;;;;8442409;27;28231;-76
2022/12/31 13:18:47;;;;;;;;;;;;;;;;;;8449044;27;27466;-74
2022/12/31 13:22:47;;;;;;;;;;;;;;;;;;8454228;27;27428;-75
2022/12/31 13:26:48;;;;;;;;;;;;;;;;;;8452147;27;28209;-75
2022/12/31 13:30:48;;;;;;;;;;;;;;;;;;8453963;27;27358;-76
2022/12/31 13:34:48;;;;;;;;;;;;;;;;;;8459377;27;27461;-75
2022/12/31 13:38:48;;;;;;;;;;;;;;;;;;8439997;27;28741;-75
2022/12/31 13:42:48;;;;;;;;;;;;;;;;;;8451497;27;27376;-76
2022/12/31 13:46:48;;;;;;;;;;;;;;;;;;8453420;27;27538;-75
2022/12/31 13:50:50;;;;;;;;;;;;;;;;;;8454388;27;27432;-75
2022/12/31 13:54:50;;;;;;;;;;;;;;;;;;8452860;27;27501;-75
2022/12/31 13:58:51;;;;;;;;;;;;;;;;;;8452704;27;27952;-76
2022/12/31 14:02:52;;;;;;;;;;;;;;;;;;8452449;27;28308;-76
2022/12/31 14:06:52;;;;;;;;;;;;;;;;;;8440277;27;28780;-76
2022/12/31 14:10:53;;;;;;;;;;;;;;;;;;8459800;27;28596;-76
2022/12/31 14:14:53;;;;;;;;;;;;;;;;;;8441758;27;28943;-76
2022/12/31 14:18:53;;;;;;;;;;;;;;;;;;8438275;27;29959;-76
2022/12/31 14:22:53;;;;;;;;;;;;;;;;;;8454268;27;27397;-76
2022/12/31 14:26:53;;;;;;;;;;;;;;;;;;8458030;27;27409;-76
2022/12/31 14:30:53;;;;;;;;;;;;;;;;;;8459573;27;27395;-75
2022/12/31 14:34:53;;;;;;;;;;;;;;;;;;8458803;27;27522;-76
2022/12/31 14:38:54;;;;;;;;;;;;;;;;;;8451801;27;27937;-76
2022/12/31 14:42:54;;;;;;;;;;;;;;;;;;8456748;27;27339;-76
2022/12/31 14:46:54;;;;;;;;;;;;;;;;;;8454413;27;28687;-76
2022/12/31 14:50:54;;;;;;;;;;;;;;;;;;8457473;27;27660;-76
2022/12/31 14:54:54;;;;;;;;;;;;;;;;;;8459327;27;27363;-77
2022/12/31 14:58:54;;;;;;;;;;;;;;;;;;8437125;27;28453;-76
2022/12/31 15:02:54;;;;;;;;;;;;;;;;;;8448776;27;27579;-76
2022/12/31 15:06:54;;;;;;;;;;;;;;;;;;8452491;27;27713;-76
2022/12/31 15:10:54;;;;;;;;;;;;;;;;;;8448929;27;28035;-76
2022/12/31 15:14:54;;;;;;;;;;;;;;;;;;8431902;27;28795;-76
2022/12/31 15:18:54;;;;;;;;;;;;;;;;;;8428629;27;28698;-76
2022/12/31 15:22:54;;;;;;;;;;;;;;;;;;8444316;27;29019;-76
2022/12/31 15:26:55;;;;;;;;;;;;;;;;;;8455109;27;27665;-76
2022/12/31 15:30:55;;;;;;;;;;;;;;;;;;8456733;27;27658;-76
2022/12/31 15:34:55;;;;;;;;;;;;;;;;;;8460461;27;28116;-76
2022/12/31 15:38:55;;;;;;;;;;;;;;;;;;8453148;27;28135;-76
2022/12/31 15:42:55;;;;;;;;;;;;;;;;;;8440542;27;28889;-76
2022/12/31 15:46:55;;;;;;;;;;;;;;;;;;8432405;27;29198;-76
2022/12/31 15:50:55;;;;;;;;;;;;;;;;;;8455693;27;27399;-76
2022/12/31 15:54:55;;;;;;;;;;;;;;;;;;8456692;27;27377;-76
2022/12/31 15:58:56;;;;;;;;;;;;;;;;;;8439526;27;28380;-77
2022/12/31 16:02:56;;;;;;;;;;;;;;;;;;8440064;27;27492;-76
2022/12/31 16:06:56;;;;;;;;;;;;;;;;;;8453568;27;27641;-76
2022/12/31 16:10:56;;;;;;;;;;;;;;;;;;8461725;27;27317;-77
2022/12/31 16:14:56;;;;;;;;;;;;;;;;;;8438766;27;28962;-76
2022/12/31 16:18:56;;;;;;;;;;;;;;;;;;8455975;27;28059;-76
2022/12/31 16:22:56;;;;;;;;;;;;;;;;;;8456797;27;27281;-76
2022/12/31 16:26:57;;;;;;;;;;;;;;;;;;8457654;27;27268;-76
2022/12/31 16:30:57;;;;;;;;;;;;;;;;;;8449371;27;27457;-76
2022/12/31 16:34:57;;;;;;;;;;;;;;;;;;8368142;27;28766;-77
2022/12/31 16:38:58;;;;;;;;;;;;;;;;;;8429498;27;28129;-76
2022/12/31 16:42:58;;;;;;;;;;;;;;;;;;8399968;27;28014;-76
2022/12/31 16:46:58;;;;;;;;;;;;;;;;;;8446074;27;27662;-76
2022/12/31 16:50:58;;;;;;;;;;;;;;;;;;8439570;27;27511;-75
2022/12/31 16:54:58;;;;;;;;;;;;;;;;;;8434752;27;27733;-76
2022/12/31 16:58:58;;;;;;;;;;;;;;;;;;8428969;27;27859;-76
2022/12/31 17:02:58;;;;;;;;;;;;;;;;;;8394490;27;28178;-76
2022/12/31 17:06:58;;;;;;;;;;;;;;;;;;8369054;27;28851;-76
2022/12/31 17:10:59;;;;;;;;;;;;;;;;;;8375266;27;28865;-76
2022/12/31 17:14:59;;;;;;;;;;;;;;;;;;8408979;27;28551;-76
2022/12/31 17:18:59;;;;;;;;;;;;;;;;;;8364897;27;28307;-76
2022/12/31 17:22:59;;;;;;;;;;;;;;;;;;8412342;27;28091;-76
2022/12/31 17:26:59;;;;;;;;;;;;;;;;;;8355830;27;28365;-75
2022/12/31 17:30:59;;;;;;;;;;;;;;;;;;8377699;27;28784;-75
2022/12/31 17:34:59;;;;;;;;;;;;;;;;;;8390727;27;28820;-75
2022/12/31 17:38:59;;;;;;;;;;;;;;;;;;8392824;27;29271;-76
2022/12/31 17:42:59;;;;;;;;;;;;;;;;;;8426304;27;28020;-77
2022/12/31 17:46:59;;;;;;;;;;;;;;;;;;8422082;27;28228;-76
2022/12/31 17:51:00;;;;;;;;;;;;;;;;;;8454292;27;27829;-76
2022/12/31 17:55:00;;;;;;;;;;;;;;;;;;8448362;27;27612;-76
2022/12/31 17:59:00;;;;;;;;;;;;;;;;;;8446474;27;27641;-76
2022/12/31 18:03:00;;;;;;;;;;;;;;;;;;8446977;27;27708;-76
2022/12/31 18:07:00;;;;;;;;;;;;;;;;;;8446226;27;27352;-76
2022/12/31 18:11:00;;;;;;;;;;;;;;;;;;8443532;27;27166;-77
2022/12/31 18:15:00;;;;;;;;;;;;;;;;;;8451515;27;27777;-77
2022/12/31 18:19:00;;;;;;;;;;;;;;;;;;8436781;27;28794;-76
2022/12/31 18:23:00;;;;;;;;;;;;;;;;;;8442733;27;28981;-76
2022/12/31 18:27:00;;;;;;;;;;;;;;;;;;8454727;27;28491;-76
2022/12/31 18:31:00;;;;;;;;;;;;;;;;;;8457125;27;28650;-76
2022/12/31 18:35:01;;;;;;;;;;;;;;;;;;8459951;27;27182;-76
2022/12/31 18:39:03;;;;;;;;;;;;;;;;;;8462473;27;27401;-77
2022/12/31 18:43:03;;;;;;;;;;;;;;;;;;8430387;27;29173;-76
2022/12/31 18:47:03;;;;;;;;;;;;;;;;;;8433260;27;28581;-76
2022/12/31 18:51:03;;;;;;;;;;;;;;;;;;8453157;27;27648;-76
2022/12/31 18:55:03;;;;;;;;;;;;;;;;;;8458852;27;28235;-76
2022/12/31 18:59:03;;;;;;;;;;;;;;;;;;8444858;27;27905;-76
2022/12/31 19:03:04;;;;;;;;;;;;;;;;;;8454494;27;28467;-76
2022/12/31 19:07:04;;;;;;;;;;;;;;;;;;8437771;27;28881;-76
2022/12/31 19:11:04;;;;;;;;;;;;;;;;;;8458787;27;28321;-75
2022/12/31 19:15:04;;;;;;;;;;;;;;;;;;8434400;27;28702;-75
2022/12/31 19:19:04;;;;;;;;;;;;;;;;;;8447418;27;27986;-76
2022/12/31 19:23:04;;;;;;;;;;;;;;;;;;8439931;27;28658;-75
2022/12/31 19:27:04;;;;;;;;;;;;;;;;;;8448398;27;27488;-74
2022/12/31 19:31:04;;;;;;;;;;;;;;;;;;8449827;27;27568;-76
2022/12/31 19:35:04;;;;;;;;;;;;;;;;;;8459956;27;27303;-77
2022/12/31 19:39:05;;;;;;;;;;;;;;;;;;8435235;27;28852;-76
2022/12/31 19:43:05;;;;;;;;;;;;;;;;;;8455107;27;27305;-76
2022/12/31 19:47:05;;;;;;;;;;;;;;;;;;8451447;27;27339;-76
2022/12/31 19:51:05;;;;;;;;;;;;;;;;;;8456707;27;28175;-76
2022/12/31 19:55:05;;;;;;;;;;;;;;;;;;8454655;27;27530;-76
2022/12/31 19:59:05;;;;;;;;;;;;;;;;;;8436751;27;28843;-76
2022/12/31 20:03:05;;;;;;;;;;;;;;;;;;8438481;27;28538;-76
2022/12/31 20:07:05;;;;;;;;;;;;;;;;;;8439045;27;30138;-76
2022/12/31 20:11:05;;;;;;;;;;;;;;;;;;8437031;27;28695;-76
2022/12/31 20:15:05;;;;;;;;;;;;;;;;;;8451670;27;27460;-76
2022/12/31 20:19:05;;;;;;;;;;;;;;;;;;8438384;27;28613;-77
2022/12/31 20:23:06;;;;;;;;;;;;;;;;;;8451843;27;27786;-76
2022/12/31 20:27:07;;;;;;;;;;;;;;;;;;8436627;27;28846;-76
2022/12/31 20:31:07;;;;;;;;;;;;;;;;;;8447854;27;27462;-77
2022/12/31 20:35:07;;;;;;;;;;;;;;;;;;8450727;27;28179;-77
2022/12/31 20:39:07;;;;;;;;;;;;;;;;;;8452369;27;28276;-76
2022/12/31 20:43:07;;;;;;;;;;;;;;;;;;8454793;27;27446;-76
2022/12/31 20:47:07;;;;;;;;;;;;;;;;;;8452248;27;27190;-77
2022/12/31 20:51:07;;;;;;;;;;;;;;;;;;8440800;27;28789;-76
2022/12/31 20:55:08;;;;;;;;;;;;;;;;;;8450941;27;27892;-76
2022/12/31 20:59:08;;;;;;;;;;;;;;;;;;8425950;27;28723;-76
2022/12/31 21:03:08;;;;;;;;;;;;;;;;;;8447094;27;28270;-76
2022/12/31 21:07:09;;;;;;;;;;;;;;;;;;8436520;27;28533;-76
2022/12/31 21:15:28;;;;;;;;;;;;;;;;;;8451965;27;27532;-76
2022/12/31 21:19:28;;;;;;;;;;;;;;;;;;8452531;27;27220;-75
2022/12/31 21:23:28;;;;;;;;;;;;;;;;;;8447093;27;27870;-75
2022/12/31 21:27:28;;;;;;;;;;;;;;;;;;8451734;27;27477;-75
2022/12/31 21:31:28;;;;;;;;;;;;;;;;;;8449374;27;27415;-75
2022/12/31 21:35:28;;;;;;;;;;;;;;;;;;8447536;27;27983;-76
2022/12/31 21:39:28;;;;;;;;;;;;;;;;;;8444573;27;27754;-76
2022/12/31 21:43:28;;;;;;;;;;;;;;;;;;8454968;27;28110;-77
2022/12/31 21:56:14;;;;;;;;;;;;;;;;;;8454611;27;27421;-75
2022/12/31 22:04:33;;;;;;;;;;;;;;;;;;8459542;27;28509;-74
2022/12/31 22:08:33;;;;;;;;;;;;;;;;;;8453297;27;28397;-76
2022/12/31 22:12:33;;;;;;;;;;;;;;;;;;8461363;27;27643;-76
2022/12/31 22:16:34;;;;;;;;;;;;;;;;;;8457412;27;27535;-75
2022/12/31 22:20:34;;;;;;;;;;;;;;;;;;8459646;27;27284;-76
2022/12/31 22:24:34;;;;;;;;;;;;;;;;;;8454681;27;27557;-76
2022/12/31 22:28:34;;;;;;;;;;;;;;;;;;8430844;27;28753;-76
2022/12/31 22:32:34;;;;;;;;;;;;;;;;;;8460818;27;27633;-76
2022/12/31 22:36:34;;;;;;;;;;;;;;;;;;8424018;27;28443;-76
2022/12/31 22:40:34;;;;;;;;;;;;;;;;;;8463521;27;27385;-75
2022/12/31 22:44:34;;;;;;;;;;;;;;;;;;8439810;27;28500;-73
2022/12/31 22:48:34;;;;;;;;;;;;;;;;;;8462897;27;27817;-76
2022/12/31 22:52:34;;;;;;;;;;;;;;;;;;8458277;27;28211;-75
2022/12/31 22:56:34;;;;;;;;;;;;;;;;;;8443128;27;29610;-76
2022/12/31 23:00:34;;;;;;;;;;;;;;;;;;8453160;27;27489;-75
2022/12/31 23:04:35;;;;;;;;;;;;;;;;;;8454201;27;28196;-74
2022/12/31 23:08:35;;;;;;;;;;;;;;;;;;8456060;27;28216;-76
2022/12/31 23:12:35;;;;;;;;;;;;;;;;;;8459301;27;27459;-76
2022/12/31 23:25:13;;;;;;;;;;;;;;;;;;8456721;27;27395;-76
2022/12/31 23:29:13;;;;;;;;;;;;;;;;;;8439323;27;28565;-77
2022/12/31 23:33:13;;;;;;;;;;;;;;;;;;8453228;27;28266;-76
2022/12/31 23:37:13;;;;;;;;;;;;;;;;;;8451459;27;27468;-76
2022/12/31 23:41:13;;;;;;;;;;;;;;;;;;8454406;27;27343;-73
2022/12/31 23:45:13;;;;;;;;;;;;;;;;;;8455465;27;27350;-75
2022/12/31 23:49:13;;;;;;;;;;;;;;;;;;8451223;27;27442;-76
2022/12/31 23:53:13;;;;;;;;;;;;;;;;;;8458599;27;27857;-76
2022/12/31 23:57:13;;;;;;;;;;;;;;;;;;8448315;27;27952;-76
